Time;durP1;ratioP1;P1;durP2;ratioP2;P2;SDS_P1;SDS_P2;PMS_P1;PMS_P2;Temp;Humidity;BMP_temperature;BMP_pressure;BME280_temperature;BME280_humidity;BME280_pressure;Samples;Min_cycle;Max_cycle;Signal;HPM_P1;HPM_P2
2022/08/01 00:00:46;;;;;;;0.30;0.20;;;;;;;23.65;44.41;101600.03;16144504;19;129232;-59
2022/08/01 00:06:08;;;;;;;0.20;0.20;;;;;;;23.65;44.20;101612.03;16142775;19;128867;-68
2022/08/01 00:11:29;;;;;;;0.57;0.30;;;;;;;23.65;44.69;101608.41;16144240;19;129740;-69
2022/08/01 00:16:51;;;;;;;0.25;0.20;;;;;;;23.64;44.35;101603.91;16144155;19;129408;-65
2022/08/01 00:22:13;;;;;;;0.20;0.10;;;;;;;23.64;44.46;101612.31;16145580;19;129866;-69
2022/08/01 00:27:34;;;;;;;0.17;0.10;;;;;;;23.63;44.46;101614.22;16141563;19;130631;-67
2022/08/01 00:32:58;;;;;;;0.38;0.10;;;;;;;23.63;44.39;101617.03;16141940;19;130146;-68
2022/08/01 00:38:20;;;;;;;0.20;0.15;;;;;;;23.63;44.29;101607.81;16142703;19;131575;-68
2022/08/01 00:43:42;;;;;;;0.68;0.10;;;;;;;23.63;44.30;101608.66;16144003;19;129638;-67
2022/08/01 00:49:04;;;;;;;1.27;0.30;;;;;;;23.62;44.14;101604.19;16138774;19;130569;-65
2022/08/01 00:54:31;;;;;;;0.30;0.10;;;;;;;23.63;44.26;101602.22;16137540;19;129426;-70
2022/08/01 00:59:52;;;;;;;0.15;0.15;;;;;;;23.62;44.17;101608.94;16138642;19;129216;-69
2022/08/01 01:05:14;;;;;;;0.17;0.10;;;;;;;23.62;44.30;101607.00;16136974;19;130262;-67
2022/08/01 01:11:01;;;;;;;0.20;0.10;;;;;;;23.63;43.96;101605.03;16134687;19;129557;-67
2022/08/01 01:16:24;;;;;;;0.50;0.10;;;;;;;23.61;44.27;101604.44;16141798;19;129680;-65
2022/08/01 01:22:18;;;;;;;0.75;0.30;;;;;;;23.62;44.21;101615.38;16139070;19;129796;-67
2022/08/01 01:28:10;;;;;;;0.45;0.20;;;;;;;23.61;44.16;101608.09;16136176;19;130860;-63
2022/08/01 01:33:34;;;;;;;0.10;0.10;;;;;;;23.59;44.65;101599.13;16139167;19;129579;-58
2022/08/01 01:39:07;;;;;;;0.38;0.20;;;;;;;23.59;44.48;101601.06;16132933;19;129666;-58
2022/08/01 01:44:30;;;;;;;0.25;0.10;;;;;;;23.58;44.61;101605.81;16138384;19;131247;-59
2022/08/01 01:49:55;;;;;;;0.40;0.13;;;;;;;23.59;44.28;101595.47;16132220;19;128932;-57
2022/08/01 01:55:20;;;;;;;0.13;0.05;;;;;;;23.57;44.47;101601.31;16137950;19;129875;-59
2022/08/01 02:00:48;;;;;;;0.50;0.22;;;;;;;23.57;44.40;101598.50;16131685;19;129866;-59
2022/08/01 02:06:14;;;;;;;0.65;0.20;;;;;;;23.57;44.38;101604.09;16131929;19;129573;-58
2022/08/01 02:11:38;;;;;;;0.30;0.30;;;;;;;23.57;44.38;101601.31;16138527;19;129996;-59
2022/08/01 02:17:23;;;;;;;0.20;0.20;;;;;;;23.57;44.09;101598.50;16132184;19;131381;-59
2022/08/01 02:23:12;;;;;;;0.20;0.20;;;;;;;23.57;44.30;101598.50;16134050;19;129952;-59
2022/08/01 02:28:49;;;;;;;0.20;0.20;;;;;;;23.58;44.29;101599.34;16130869;19;131223;-59
2022/08/01 02:34:16;;;;;;;1.38;0.47;;;;;;;23.56;44.36;101596.00;16134978;19;129000;-58
2022/08/01 02:39:39;;;;;;;0.52;0.40;;;;;;;23.55;44.09;101595.13;16134302;19;130177;-58
2022/08/01 02:45:04;;;;;;;0.60;0.50;;;;;;;23.55;44.09;101600.72;16135146;19;129005;-59
2022/08/01 02:50:26;;;;;;;;;;;;;;;23.51;44.56;101599.56;16130601;19;129480;-58
2022/08/01 02:55:51;;;;;;;0.98;0.70;;;;;;;23.54;44.51;101601.84;16129284;19;131415;-57
2022/08/01 03:01:15;;;;;;;1.03;0.77;;;;;;;23.53;43.89;101608.53;16132049;19;129381;-59
2022/08/01 03:06:41;;;;;;;2.42;1.70;;;;;;;23.53;44.53;101611.31;16133148;19;129965;-57
2022/08/01 03:12:11;;;;;;;2.03;1.15;;;;;;;23.53;44.19;101602.94;16135310;19;129051;-57
2022/08/01 03:17:36;;;;;;;3.15;1.40;;;;;;;23.53;44.38;101613.28;16132762;19;129752;-58
2022/08/01 03:23:01;;;;;;;1.88;1.40;;;;;;;23.52;44.45;101609.63;16133632;19;129724;-58
2022/08/01 03:28:25;;;;;;;1.57;1.33;;;;;;;23.51;44.52;101617.19;16131017;19;129418;-58
2022/08/01 03:33:50;;;;;;;2.30;1.20;;;;;;;23.51;44.45;101616.31;16140985;19;130093;-58
2022/08/01 03:39:14;;;;;;;4.68;1.33;;;;;;;23.50;44.41;101609.91;16147676;19;128957;-58
2022/08/01 03:44:39;;;;;;;1.83;1.03;;;;;;;23.49;44.75;101611.00;16148371;19;129765;-58
2022/08/01 03:50:03;;;;;;;1.15;0.80;;;;;;;23.50;44.59;101615.47;16142427;19;129294;-58
2022/08/01 03:55:32;;;;;;;1.13;0.98;;;;;;;23.49;44.44;101616.59;16146428;19;129069;-58
2022/08/01 04:00:55;;;;;;;1.02;0.70;;;;;;;23.49;44.13;101612.97;16146101;19;129369;-57
2022/08/01 04:06:17;;;;;;;1.08;0.73;;;;;;;23.49;44.48;101624.13;16141439;19;130926;-58
2022/08/01 04:11:40;;;;;;;2.03;0.80;;;;;;;23.49;44.40;101612.97;16140326;19;130393;-58
2022/08/01 04:17:02;;;;;;;1.63;0.93;;;;;;;23.48;44.56;101622.44;16145970;19;129521;-57
2022/08/01 04:22:24;;;;;;;1.05;0.60;;;;;;;23.48;44.31;101616.88;16144943;19;129403;-57
2022/08/01 04:27:48;;;;;;;1.55;0.65;;;;;;;23.48;44.53;101625.25;16143716;19;129614;-58
2022/08/01 04:33:16;;;;;;;1.00;0.70;;;;;;;23.49;44.42;101635.31;16145391;19;130231;-58
2022/08/01 04:38:39;;;;;;;2.70;0.57;;;;;;;23.47;44.45;101627.16;16143921;19;131195;-58
2022/08/01 04:44:02;;;;;;;0.60;0.50;;;;;;;23.48;44.58;101647.56;16142006;19;130479;-58
2022/08/01 04:49:24;;;;;;;0.60;0.50;;;;;;;23.48;44.12;101644.78;16141261;19;129553;-56
2022/08/01 04:54:46;;;;;;;0.88;0.47;;;;;;;23.47;44.42;101645.88;16137412;19;129499;-57
2022/08/01 05:00:08;;;;;;;0.50;0.50;;;;;;;23.47;44.24;101655.09;16143276;19;129614;-58
2022/08/01 05:05:31;;;;;;;0.50;0.50;;;;;;;23.46;44.05;101663.75;16138319;19;130587;-58
2022/08/01 05:10:53;;;;;;;0.90;0.55;;;;;;;23.46;44.59;101660.97;16139298;19;130836;-55
2022/08/01 05:16:16;;;;;;;1.15;0.80;;;;;;;23.46;44.14;101659.00;16140993;19;129130;-53
2022/08/01 05:21:38;;;;;;;2.25;0.90;;;;;;;23.46;44.74;101658.16;16142316;19;130250;-54
2022/08/01 05:27:00;;;;;;;2.13;1.30;;;;;;;23.45;45.04;101660.09;16142422;19;129306;-52
2022/08/01 05:32:23;;;;;;;4.97;1.20;;;;;;;23.45;45.84;101667.66;16142328;19;131641;-56
2022/08/01 05:37:45;;;;;;;3.30;1.70;;;;;;;23.44;45.72;101671.53;16141016;19;129986;-54
2022/08/01 05:43:07;;;;;;;4.68;1.27;;;;;;;23.44;45.83;101661.22;16139235;19;130968;-57
2022/08/01 05:48:30;;;;;;;6.57;1.30;;;;;;;23.45;45.66;101660.09;16138620;19;129482;-55
2022/08/01 05:53:52;;;;;;;4.43;1.92;;;;;;;23.48;46.09;101667.97;16134914;19;129006;-57
2022/08/01 05:59:13;;;;;;;2.20;1.38;;;;;;;23.49;46.21;101663.22;16138685;19;129134;-55
2022/08/01 06:04:35;;;;;;;5.40;1.20;;;;;;;23.50;46.23;101671.34;16135650;19;129331;-57
2022/08/01 06:09:57;;;;;;;2.47;1.30;;;;;;;23.51;46.04;101663.78;16136131;19;129700;-55
2022/08/01 06:15:19;;;;;;;4.05;1.60;;;;;;;23.51;46.29;101672.16;16139972;19;129632;-57
2022/08/01 06:20:41;;;;;;;5.88;1.60;;;;;;;23.51;46.64;101670.22;16138515;19;129842;-57
2022/08/01 06:26:02;;;;;;;4.85;1.50;;;;;;;23.53;46.13;101669.13;16137679;19;130051;-57
2022/08/01 06:31:24;;;;;;;3.03;1.25;;;;;;;23.51;46.15;101673.03;16131444;19;129766;-55
2022/08/01 06:36:52;;;;;;;3.03;1.20;;;;;;;23.51;46.10;101681.41;16137713;19;129370;-57
2022/08/01 06:42:14;;;;;;;4.15;1.38;;;;;;;23.52;46.60;101676.66;16134322;19;129353;-57
2022/08/01 06:47:37;;;;;;;1.40;0.95;;;;;;;23.52;46.33;101673.84;16136071;19;130051;-58
2022/08/01 06:52:59;;;;;;;2.20;0.98;;;;;;;23.52;46.78;101685.03;16128516;19;130656;-58
2022/08/01 06:58:20;;;;;;;2.25;0.98;;;;;;;23.54;47.10;101696.78;16133675;19;129431;-57
2022/08/01 07:03:52;;;;;;;3.75;1.08;;;;;;;23.57;47.20;101693.47;16133408;19;129709;-58
2022/08/01 07:09:15;;;;;;;6.03;0.93;;;;;;;23.61;46.46;101705.84;16142479;19;129081;-57
2022/08/01 07:14:37;;;;;;;3.13;1.00;;;;;;;23.65;46.43;101701.41;16147493;19;129159;-57
2022/08/01 07:19:58;;;;;;;30.20;2.88;;;;;;;23.72;46.91;101695.63;16141891;19;129719;-57
2022/08/01 07:25:20;;;;;;;38.22;2.50;;;;;;;23.81;46.81;101702.44;16146459;19;129560;-59
2022/08/01 07:30:44;;;;;;;31.45;2.30;;;;;;;23.89;46.44;101706.69;16142954;19;129255;-58
2022/08/01 07:36:06;;;;;;;29.63;2.47;;;;;;;23.96;46.63;101707.34;16149325;19;129401;-57
2022/08/01 07:41:29;;;;;;;22.35;2.20;;;;;;;23.99;46.22;101710.72;16147740;19;129741;-59
2022/08/01 07:47:11;;;;;;;32.08;2.53;;;;;;;24.02;46.51;101710.16;16149554;19;129417;-59
2022/08/01 07:52:32;;;;;;;31.85;2.42;;;;;;;24.03;46.58;101723.03;16143177;19;129050;-59
2022/08/01 07:57:54;;;;;;;18.23;1.55;;;;;;;24.04;46.66;101727.53;16147030;19;129324;-58
2022/08/01 08:03:16;;;;;;;20.92;2.35;;;;;;;24.04;46.51;101720.00;16143811;19;129839;-58
2022/08/01 08:08:38;;;;;;;49.40;3.05;;;;;;;24.07;46.67;101718.63;16140878;19;130353;-59
2022/08/01 08:14:00;;;;;;;31.95;3.50;;;;;;;24.13;46.53;101725.94;16146937;19;129667;-57
2022/08/01 08:19:22;;;;;;;41.33;3.70;;;;;;;24.16;46.23;101728.22;16143235;19;129499;-58
2022/08/01 08:24:59;;;;;;;30.17;2.75;;;;;;;24.17;46.18;101729.91;16146608;19;130270;-59
2022/08/01 08:30:21;;;;;;;37.53;3.17;;;;;;;24.19;46.11;101726.81;16141486;19;129897;-59
2022/08/01 08:35:43;;;;;;;26.52;2.85;;;;;;;24.18;45.96;101723.19;16144797;19;129198;-58
2022/08/01 08:41:14;;;;;;;31.67;3.67;;;;;;;24.27;46.08;101726.38;16144570;19;129453;-56
2022/08/01 08:46:44;;;;;;;55.25;5.10;;;;;;;24.34;46.11;101734.56;16142171;19;129968;-57
2022/08/01 08:52:06;;;;;;;42.67;4.25;;;;;;;24.31;45.86;101735.09;16138743;19;129032;-54
2022/08/01 08:57:30;;;;;;;38.13;3.22;;;;;;;24.32;45.45;101739.56;16142611;19;129435;-59
2022/08/01 09:02:55;;;;;;;34.38;3.10;;;;;;;24.22;45.37;101738.34;16144519;19;130319;-59
2022/08/01 09:08:17;;;;;;;28.25;2.58;;;;;;;24.16;45.51;101744.97;16140698;19;130553;-59
2022/08/01 09:13:38;;;;;;;21.55;2.10;;;;;;;24.15;45.83;101737.69;16144227;19;128893;-58
2022/08/01 09:19:13;;;;;;;21.92;2.40;;;;;;;24.17;45.43;101735.50;16139706;19;129026;-59
2022/08/01 09:24:37;;;;;;;20.10;1.50;;;;;;;24.18;45.57;101741.94;16137139;19;129330;-59
2022/08/01 09:30:13;;;;;;;16.05;2.05;;;;;;;24.19;45.41;101738.88;16137391;19;129792;-59
2022/08/01 09:35:44;;;;;;;13.55;1.38;;;;;;;24.21;45.27;101736.66;16140255;19;129500;-59
2022/08/01 09:41:07;;;;;;;11.25;1.50;;;;;;;24.21;45.32;101741.38;16139027;19;128864;-59
2022/08/01 09:46:29;;;;;;;10.70;1.20;;;;;;;24.19;45.10;101741.66;16140516;19;128961;-59
2022/08/01 09:51:51;;;;;;;6.35;1.10;;;;;;;24.21;45.11;101747.84;16134686;19;130211;-57
2022/08/01 09:57:21;;;;;;;10.88;0.98;;;;;;;24.22;45.05;101755.13;16139941;19;129640;-59
2022/08/01 10:02:43;;;;;;;3.88;0.80;;;;;;;24.22;44.92;101749.53;16137272;19;129547;-58
2022/08/01 10:08:06;;;;;;;7.22;1.00;;;;;;;24.20;44.65;101746.16;16135558;19;131916;-59
2022/08/01 10:13:28;;;;;;;7.53;0.82;;;;;;;24.20;44.74;101754.53;16132462;19;130406;-59
2022/08/01 10:18:58;;;;;;;8.52;0.85;;;;;;;24.21;44.40;101759.03;16134169;19;129995;-59
2022/08/01 10:24:21;;;;;;;8.85;0.80;;;;;;;24.22;44.77;101743.94;16138317;19;129955;-59
2022/08/01 10:30:07;;;;;;;5.97;0.65;;;;;;;24.23;44.66;101744.75;16135697;19;129419;-59
2022/08/01 10:35:46;;;;;;;3.95;0.57;;;;;;;24.18;44.62;101759.53;16136882;19;129206;-59
2022/08/01 10:41:09;;;;;;;4.63;0.65;;;;;;;24.16;44.61;101753.38;16136140;19;129695;-58
2022/08/01 10:46:31;;;;;;;6.70;0.68;;;;;;;24.16;44.28;101744.97;16152447;19;129612;-58
2022/08/01 10:51:53;;;;;;;3.10;0.60;;;;;;;24.15;44.61;101743.28;16147790;19;129128;-59
2022/08/01 10:57:17;;;;;;;5.43;1.10;;;;;;;24.17;44.82;101749.47;16150204;19;129783;-59
2022/08/01 11:02:57;;;;;;;4.85;1.20;;;;;;;24.18;44.75;101742.75;16149750;19;129454;-58
2022/08/01 11:08:23;;;;;;;4.93;1.35;;;;;;;24.20;44.39;101751.75;16141288;19;129188;-58
2022/08/01 11:14:00;;;;;;;4.53;1.10;;;;;;;24.20;44.21;101754.53;16146293;19;129619;-58
2022/08/01 11:19:22;;;;;;;4.97;1.33;;;;;;;24.19;44.47;101751.97;16146357;19;129378;-58
2022/08/01 11:24:48;;;;;;;3.92;1.20;;;;;;;24.19;44.48;101750.03;16147344;19;128978;-57
2022/08/01 11:30:11;;;;;;;4.05;1.15;;;;;;;24.19;43.99;101752.84;16146107;19;129211;-58
2022/08/01 11:35:35;;;;;;;4.57;1.30;;;;;;;24.19;44.25;101744.47;16149268;19;129138;-58
2022/08/01 11:41:21;;;;;;;3.70;1.17;;;;;;;24.21;44.20;101742.25;16148203;19;129251;-58
2022/08/01 11:47:09;;;;;;;4.32;1.55;;;;;;;24.21;44.20;101752.56;16146206;19;130819;-57
2022/08/01 11:52:35;;;;;;;5.35;1.27;;;;;;;24.20;44.19;101740.56;16142693;19;128902;-58
2022/08/01 11:58:00;;;;;;;3.53;1.17;;;;;;;24.24;43.90;101747.34;16146976;19;129493;-57
2022/08/01 12:03:29;;;;;;;2.33;1.07;;;;;;;24.24;43.98;101738.97;16148159;19;130709;-57
2022/08/01 12:08:54;;;;;;;1.95;0.82;;;;;;;24.26;43.71;101738.69;16142981;19;130397;-58
2022/08/01 12:14:19;;;;;;;3.55;0.80;;;;;;;24.26;44.10;101745.09;16145784;19;130341;-58
2022/08/01 12:19:41;;;;;;;1.60;0.70;;;;;;;24.26;44.34;101744.28;16146318;19;129638;-57
2022/08/01 12:25:12;;;;;;;3.95;0.95;;;;;;;24.29;43.73;101743.75;16145997;19;129183;-58
2022/08/01 12:30:36;;;;;;;4.32;1.10;;;;;;;24.29;43.80;101751.28;16142414;19;129256;-58
2022/08/01 12:35:58;;;;;;;2.63;0.70;;;;;;;24.28;43.85;101753.25;16145428;19;129652;-57
2022/08/01 12:41:20;;;;;;;2.13;0.90;;;;;;;24.29;43.88;101748.47;16139451;19;128929;-59
2022/08/01 12:46:42;;;;;;;2.92;0.85;;;;;;;24.30;43.67;101747.38;16144487;19;128835;-58
2022/08/01 12:52:05;;;;;;;2.35;0.80;;;;;;;24.29;43.47;101738.16;16140695;19;128998;-59
2022/08/01 12:57:34;;;;;;;2.90;0.73;;;;;;;24.30;43.55;101739.84;16143148;19;129365;-58
2022/08/01 13:03:10;;;;;;;1.75;0.60;;;;;;;24.32;43.64;101743.19;16143240;19;129667;-57
2022/08/01 13:08:34;;;;;;;2.40;0.88;;;;;;;24.32;43.28;101736.78;16137366;19;128865;-58
2022/08/01 13:13:56;;;;;;;2.38;0.82;;;;;;;24.33;43.51;101730.91;16137571;19;129340;-57
2022/08/01 13:19:18;;;;;;;1.27;0.55;;;;;;;24.34;43.02;101734.56;16143377;19;129275;-58
2022/08/01 13:24:40;;;;;;;1.38;0.80;;;;;;;24.34;43.39;101735.38;16142454;19;129582;-58
2022/08/01 13:30:16;;;;;;;2.08;0.60;;;;;;;24.35;43.21;101736.25;16141311;19;129366;-59
2022/08/01 13:35:38;;;;;;;1.55;0.88;;;;;;;24.34;42.99;101740.16;16141636;19;129048;-59
2022/08/01 13:41:01;;;;;;;1.73;0.52;;;;;;;24.32;43.34;101748.78;16143603;19;129042;-58
2022/08/01 13:46:23;;;;;;;1.75;0.70;;;;;;;24.32;43.25;101745.16;16140296;19;129056;-58
2022/08/01 13:51:46;;;;;;;2.67;0.88;;;;;;;24.32;43.20;101734.81;16138383;19;129128;-58
2022/08/01 13:57:09;;;;;;;0.93;0.40;;;;;;;24.32;43.45;101736.78;16137711;19;129306;-58
2022/08/01 14:02:30;;;;;;;2.28;0.70;;;;;;;24.32;43.08;101736.78;16139179;19;129065;-55
2022/08/01 14:07:52;;;;;;;1.63;0.60;;;;;;;24.32;43.03;101743.19;16135163;19;129310;-58
2022/08/01 14:13:17;;;;;;;2.17;0.80;;;;;;;24.32;43.00;101736.78;16133994;19;129096;-58
2022/08/01 14:18:44;;;;;;;2.13;0.60;;;;;;;24.32;43.05;101734.81;16135609;19;129047;-59
2022/08/01 14:24:06;;;;;;;1.05;0.57;;;;;;;24.32;42.85;101733.97;16137310;19;129629;-58
2022/08/01 14:29:28;;;;;;;0.70;0.50;;;;;;;24.30;42.94;101733.41;16138048;19;129594;-58
2022/08/01 14:35:10;;;;;;;0.95;0.47;;;;;;;24.29;42.87;101732.56;16137007;19;130074;-58
2022/08/01 14:40:31;;;;;;;1.27;0.63;;;;;;;24.29;42.81;101734.50;16139502;19;128917;-59
2022/08/01 14:45:54;;;;;;;1.75;0.50;;;;;;;24.30;42.87;101727.81;16140119;19;129046;-58
2022/08/01 14:51:16;;;;;;;1.27;0.73;;;;;;;24.30;42.94;101723.06;16170938;19;129129;-58
2022/08/01 14:56:38;;;;;;;1.05;0.73;;;;;;;24.31;42.88;101721.09;16200714;19;129704;-56
2022/08/01 15:01:59;;;;;;;1.65;0.68;;;;;;;24.30;43.11;101734.25;16199042;19;129217;-57
2022/08/01 15:07:21;;;;;;;1.92;0.70;;;;;;;24.29;42.89;101726.97;16197230;19;129203;-58
2022/08/01 15:12:43;;;;;;;0.95;0.50;;;;;;;24.30;42.86;101727.81;16195729;19;128776;-55
2022/08/01 15:18:11;;;;;;;2.08;0.80;;;;;;;24.30;42.87;101730.59;16196621;19;128948;-58
2022/08/01 15:23:33;;;;;;;1.20;0.60;;;;;;;24.30;42.75;101733.41;16181101;19;128979;-56
2022/08/01 15:28:54;;;;;;;3.67;0.70;;;;;;;24.27;43.13;101730.00;16155001;19;130297;-58
2022/08/01 15:34:16;;;;;;;4.50;0.60;;;;;;;24.30;42.98;101734.25;16142924;19;129846;-59
2022/08/01 15:39:38;;;;;;;4.32;0.88;;;;;;;24.33;42.64;101739.28;16148508;19;131533;-58
2022/08/01 15:45:00;;;;;;;2.83;0.95;;;;;;;24.34;42.96;101740.97;16148395;19;129910;-59
2022/08/01 15:50:22;;;;;;;3.28;0.80;;;;;;;24.34;43.08;101740.16;16148457;19;130121;-59
2022/08/01 15:55:44;;;;;;;2.63;0.80;;;;;;;24.34;42.88;101731.75;16145497;19;129325;-56
2022/08/01 16:01:13;;;;;;;1.67;0.80;;;;;;;24.33;42.90;101733.69;16147781;19;130467;-58
2022/08/01 16:06:35;;;;;;;3.97;0.77;;;;;;;24.33;42.71;101732.88;16146449;19;128922;-57
2022/08/01 16:11:57;;;;;;;7.03;0.80;;;;;;;24.32;42.74;101725.59;16146111;19;129689;-57
2022/08/01 16:17:19;;;;;;;6.40;0.95;;;;;;;24.32;42.47;101731.19;16146233;19;129571;-58
2022/08/01 16:22:41;;;;;;;3.50;0.82;;;;;;;24.34;42.06;101728.97;16145646;19;130132;-58
2022/08/01 16:28:05;;;;;;;2.20;0.85;;;;;;;24.33;42.36;101721.69;16143775;19;129237;-58
2022/08/01 16:33:26;;;;;;;3.53;0.90;;;;;;;24.34;42.18;101723.38;16139301;19;128809;-58
2022/08/01 16:39:08;;;;;;;8.13;1.40;;;;;;;24.33;42.03;101724.47;16144249;19;128964;-59
2022/08/01 16:44:30;;;;;;;3.70;1.02;;;;;;;24.34;42.54;101717.78;16145194;19;129381;-57
2022/08/01 16:49:54;;;;;;;2.60;0.80;;;;;;;24.36;42.30;101712.78;16147902;19;129937;-58
2022/08/01 16:55:16;;;;;;;3.65;0.77;;;;;;;24.37;42.00;101711.66;16145746;19;129417;-59
2022/08/01 17:00:41;;;;;;;1.88;0.60;;;;;;;24.37;42.06;101706.91;16143005;19;129416;-57
2022/08/01 17:06:03;;;;;;;;;;;;;;;24.36;42.20;101704.38;16143667;19;129569;-58
2022/08/01 17:11:25;;;;;;;2.88;0.80;;;;;;;24.37;42.18;101708.88;16142702;19;130103;-58
2022/08/01 17:16:47;;;;;;;3.92;0.98;;;;;;;24.36;41.86;101705.22;16143681;19;129091;-57
2022/08/01 17:22:09;;;;;;;4.55;0.93;;;;;;;24.35;41.87;101713.88;16142559;19;129383;-58
2022/08/01 17:27:31;;;;;;;4.82;0.75;;;;;;;24.35;41.74;101708.28;16143114;19;129653;-57
2022/08/01 17:32:52;;;;;;;3.83;0.80;;;;;;;24.34;42.03;101717.78;16137801;19;129065;-57
2022/08/01 17:38:14;;;;;;;2.13;0.70;;;;;;;24.33;41.85;101722.50;16142556;19;129653;-58
2022/08/01 17:43:37;;;;;;;3.75;0.75;;;;;;;24.31;42.16;101721.94;16141355;19;129008;-59
2022/08/01 17:49:00;;;;;;;1.38;0.50;;;;;;;24.30;42.24;101722.22;16136196;19;130300;-57
2022/08/01 17:54:22;;;;;;;1.23;0.65;;;;;;;24.28;42.25;101725.28;16134330;19;129790;-57
2022/08/01 17:59:44;;;;;;;1.52;0.57;;;;;;;24.27;42.13;101723.59;16139074;19;129176;-58
2022/08/01 18:05:06;;;;;;;3.25;0.75;;;;;;;24.26;42.26;101724.69;16138840;19;129127;-58
2022/08/01 18:10:31;;;;;;;7.13;0.90;;;;;;;24.23;42.11;101728.84;16140302;19;129710;-59
2022/08/01 18:15:53;;;;;;;9.60;1.13;;;;;;;24.19;42.20;101733.28;16138645;19;129259;-53
2022/08/01 18:21:16;;;;;;;12.20;1.00;;;;;;;24.19;41.73;101735.22;16139054;19;129220;-59
2022/08/01 18:26:38;;;;;;;8.95;0.93;;;;;;;24.21;42.04;101731.06;16139086;19;129441;-58
2022/08/01 18:32:02;;;;;;;13.70;1.00;;;;;;;24.21;41.90;101744.19;16132335;19;130292;-59
2022/08/01 18:37:23;;;;;;;11.60;1.20;;;;;;;24.22;42.03;101743.94;16136545;19;129896;-59
2022/08/01 18:42:53;;;;;;;4.80;1.30;;;;;;;24.20;42.25;101753.66;16134801;19;129439;-57
2022/08/01 18:48:15;;;;;;;11.80;1.08;;;;;;;24.18;42.36;101753.94;16134384;19;131155;-56
2022/08/01 18:53:38;;;;;;;17.27;1.35;;;;;;;24.20;42.45;101740.56;16131337;19;129720;-57
2022/08/01 18:59:02;;;;;;;10.23;1.52;;;;;;;24.23;42.49;101751.22;16134546;19;129516;-57
2022/08/01 19:04:24;;;;;;;30.50;1.98;;;;;;;24.24;42.35;101758.53;16141781;19;128987;-58
2022/08/01 19:09:45;;;;;;;14.23;1.20;;;;;;;24.29;42.39;101756.88;16146912;19;128935;-59
2022/08/01 19:15:08;;;;;;;38.05;1.88;;;;;;;24.30;42.98;101756.63;16136430;19;130109;-59
2022/08/01 19:20:30;;;;;;;18.13;1.42;;;;;;;24.26;43.00;101767.47;16143478;19;129297;-60
2022/08/01 19:25:55;;;;;;;10.95;1.25;;;;;;;24.27;43.07;101779.53;16147767;19;129038;-60
2022/08/01 19:31:22;;;;;;;10.65;1.55;;;;;;;24.28;42.66;101786.81;16147927;19;129353;-60
2022/08/01 19:36:46;;;;;;;10.80;1.13;;;;;;;24.26;43.64;101784.25;16150251;19;129261;-60
2022/08/01 19:42:09;;;;;;;13.47;1.10;;;;;;;24.26;43.35;101784.25;16147560;19;132286;-59
2022/08/01 19:47:31;;;;;;;12.88;1.25;;;;;;;24.26;43.30;101789.84;16144094;19;130176;-60
2022/08/01 19:53:16;;;;;;;10.40;1.27;;;;;;;24.24;43.00;101803.28;16141564;19;129400;-61
2022/08/01 19:58:44;;;;;;;12.10;1.77;;;;;;;24.24;43.07;101806.06;16144981;19;130042;-59
2022/08/01 20:04:08;;;;;;;6.00;1.20;;;;;;;24.26;42.94;101809.41;16146324;19;131784;-60
2022/08/01 20:09:30;;;;;;;10.38;1.35;;;;;;;24.27;42.96;101807.47;16140058;19;129653;-61
2022/08/01 20:14:55;;;;;;;6.90;0.90;;;;;;;24.25;43.27;101807.72;16139655;19;129714;-61
2022/08/01 20:20:17;;;;;;;14.48;1.33;;;;;;;24.24;43.10;101797.69;16144745;19;130404;-60
2022/08/01 20:25:42;;;;;;;9.52;0.90;;;;;;;24.24;43.20;101802.38;16141830;19;129520;-62
2022/08/01 20:31:07;;;;;;;11.18;1.15;;;;;;;24.22;43.08;101802.66;16135630;19;129670;-59
2022/08/01 20:36:28;;;;;;;11.38;1.42;;;;;;;24.21;42.98;101802.91;16139833;19;130373;-57
2022/08/01 20:41:52;;;;;;;4.00;0.82;;;;;;;24.19;43.04;101811.56;16140033;19;129744;-58
2022/08/01 20:47:22;;;;;;;7.95;1.05;;;;;;;24.17;42.89;101801.75;16140501;19;129549;-58
2022/08/01 20:52:46;;;;;;;7.25;0.82;;;;;;;24.14;42.89;101805.91;16137205;19;129738;-57
2022/08/01 20:58:19;;;;;;;7.32;0.80;;;;;;;24.11;42.88;101817.63;16140018;19;129366;-58
2022/08/01 21:04:11;;;;;;;9.65;0.70;;;;;;;24.10;42.43;101821.53;16140067;19;129565;-67
2022/08/01 21:09:37;;;;;;;5.20;0.60;;;;;;;24.08;42.66;101826.53;16128165;19;129370;-65
2022/08/01 21:15:02;;;;;;;2.25;0.70;;;;;;;24.05;42.64;101832.63;16131952;19;132348;-69
2022/08/01 21:20:27;;;;;;;4.43;0.60;;;;;;;24.05;42.36;101830.69;16134378;19;130604;-67
2022/08/01 21:25:51;;;;;;;4.65;0.55;;;;;;;24.03;42.73;101827.31;16136351;19;129256;-60
2022/08/01 21:31:13;;;;;;;4.40;0.60;;;;;;;24.02;42.73;101827.56;16135307;19;130120;-58
2022/08/01 21:36:35;;;;;;;3.65;0.60;;;;;;;23.99;42.48;101826.16;16134189;19;129513;-62
2022/08/01 21:41:57;;;;;;;2.35;0.60;;;;;;;23.99;42.87;101823.34;16134707;19;130086;-63
2022/08/01 21:47:39;;;;;;;1.88;0.55;;;;;;;24.00;42.81;101829.81;16137087;19;129220;-70
2022/08/01 21:53:20;;;;;;;2.28;0.50;;;;;;;23.97;42.48;101819.97;16130092;19;129675;-57
2022/08/01 21:59:36;;;;;;;2.38;0.50;;;;;;;23.95;42.72;101811.84;16129050;19;129776;-58
2022/08/01 22:05:06;;;;;;;1.95;0.52;;;;;;;23.95;42.57;101811.84;16131004;19;129611;-58
2022/08/01 22:10:29;;;;;;;1.75;0.40;;;;;;;23.94;42.56;101809.31;16133175;19;129818;-57
2022/08/01 22:15:55;;;;;;;2.28;0.30;;;;;;;23.94;42.72;101810.16;16130004;19;129514;-57
2022/08/01 22:21:17;;;;;;;2.45;0.43;;;;;;;23.92;42.11;101809.56;16135276;19;129774;-57
2022/08/01 22:26:40;;;;;;;1.23;0.30;;;;;;;23.91;42.22;101810.69;16132887;19;130495;-57
2022/08/01 22:32:02;;;;;;;1.85;0.30;;;;;;;23.90;42.71;101808.97;16131826;19;128970;-57
2022/08/01 22:37:25;;;;;;;1.13;0.20;;;;;;;23.91;42.71;101809.84;16137876;19;129986;-57
2022/08/01 22:43:22;;;;;;;1.25;0.32;;;;;;;23.91;42.55;101804.25;16149450;19;129432;-57
2022/08/01 22:48:58;;;;;;;1.25;0.20;;;;;;;23.90;42.63;101800.59;16148122;19;130751;-59
2022/08/01 22:54:36;;;;;;;0.52;0.30;;;;;;;23.88;42.42;101801.97;16145721;19;129674;-59
2022/08/01 22:59:59;;;;;;;0.90;0.30;;;;;;;23.85;42.41;101797.75;16146945;19;128901;-59
2022/08/01 23:05:23;;;;;;;0.43;0.25;;;;;;;23.84;42.49;101798.88;16148895;19;129605;-63
2022/08/01 23:10:45;;;;;;;0.40;0.20;;;;;;;23.84;42.52;101812.84;16148056;19;129454;-64
2022/08/01 23:16:08;;;;;;;0.43;0.20;;;;;;;23.84;42.50;101804.47;16142879;19;130381;-66
2022/08/01 23:21:30;;;;;;;0.30;0.10;;;;;;;23.83;42.72;101797.19;16147555;19;130621;-64
2022/08/01 23:26:52;;;;;;;0.82;0.20;;;;;;;23.81;42.66;101800.25;16150350;19;130248;-63
2022/08/01 23:32:15;;;;;;;0.20;0.10;;;;;;;23.82;42.60;101804.69;16147555;19;129826;-66
2022/08/01 23:37:37;;;;;;;0.35;0.20;;;;;;;23.81;42.71;101797.44;16148500;19;130355;-67
2022/08/01 23:43:00;;;;;;;1.00;0.30;;;;;;;23.81;42.59;101793.78;16144848;19;129252;-62
2022/08/01 23:48:22;;;;;;;0.35;0.17;;;;;;;23.80;42.73;101797.69;16145283;19;132393;-61
2022/08/01 23:53:44;;;;;;;0.10;0.10;;;;;;;23.80;42.81;101789.31;16142267;19;129433;-65
2022/08/01 23:59:07;;;;;;;0.75;0.20;;;;;;;23.80;43.00;101778.13;16145751;19;129176;-64
